MTV weather

Mota Lava Airport
Ablow, Torba, Vanuatu

Public forecast

Using degrees Celsius for public forecast. Weather courtesy of forecast.io.

METAR (pilot weather report)

Closest report is Sola Airport, 15.1 nm (28.0 km) SW. Retrieved 2019/06/25 12:00 UTC (1 hour ago):

NVSC 251200Z 12006KT 9999 BKN020 28/26 Q1013

TAF (pilot weather forecast)

Closest forecast is Sola Airport, 15.1 nm (28.0 km) SW. Retrieved 2019/06/25 12:16 UTC (1 hour ago):

TAF NVSC 251000Z 2512/2612 12005KT 9999 SCT020 PROB30 INTER 2512/2518 9000 -SHRA BKN018